createdAt,value
2023-02-13T00:00:57.919Z,18.43
2023-02-13T00:03:27.249Z,18.57
2023-02-13T00:05:54.395Z,18.23
2023-02-13T00:08:21.810Z,19.00
2023-02-13T00:10:49.694Z,19.17
2023-02-13T00:13:17.053Z,18.93
2023-02-13T00:15:44.297Z,19.37
2023-02-13T00:18:11.637Z,19.77
2023-02-13T00:20:38.614Z,20.17
2023-02-13T00:23:08.696Z,19.80
2023-02-13T00:25:38.838Z,20.53
2023-02-13T00:28:05.908Z,20.37
2023-02-13T00:30:36.044Z,20.33
2023-02-13T00:33:20.630Z,21.30
2023-02-13T00:36:15.782Z,20.17
2023-02-13T00:38:43.957Z,20.83
2023-02-13T00:41:14.151Z,20.73
2023-02-13T00:43:41.432Z,20.93
2023-02-13T00:46:09.595Z,20.03
2023-02-13T00:48:37.593Z,21.17
2023-02-13T00:51:05.668Z,20.67
2023-02-13T00:53:36.364Z,20.80
2023-02-13T00:56:04.086Z,22.00
2023-02-13T00:58:31.342Z,19.77
2023-02-13T01:00:59.180Z,21.53
2023-02-13T01:03:26.647Z,21.30
2023-02-13T01:05:54.043Z,20.37
2023-02-13T01:08:21.425Z,22.13
2023-02-13T01:10:49.480Z,20.70
2023-02-13T01:13:21.636Z,20.23
2023-02-13T01:15:52.727Z,19.90
2023-02-13T01:18:21.242Z,20.00
2023-02-13T01:20:59.312Z,19.97
2023-02-13T01:23:29.786Z,20.83
2023-02-13T01:25:59.104Z,20.07
2023-02-13T01:28:34.263Z,21.20
2023-02-13T01:31:04.141Z,21.03
2023-02-13T01:33:31.566Z,20.07
2023-02-13T01:36:02.002Z,20.30
2023-02-13T01:38:35.770Z,20.13
2023-02-13T01:41:03.338Z,20.57
2023-02-13T01:43:54.594Z,21.77
2023-02-13T01:46:33.353Z,21.07
2023-02-13T01:49:12.451Z,21.70
2023-02-13T01:51:43.576Z,20.57
2023-02-13T01:54:17.826Z,21.37
2023-02-13T01:56:49.273Z,21.70
2023-02-13T01:59:32.108Z,22.70
2023-02-13T02:02:00.945Z,22.70
2023-02-13T02:04:39.928Z,22.53
2023-02-13T02:07:26.371Z,22.23
2023-02-13T02:09:59.000Z,21.97
2023-02-13T02:12:37.480Z,22.93
2023-02-13T02:15:06.868Z,21.70
2023-02-13T02:17:36.758Z,22.27
2023-02-13T02:20:30.973Z,21.83
2023-02-13T02:23:30.587Z,21.53
2023-02-13T02:26:16.694Z,21.60
2023-02-13T02:29:08.313Z,22.73
2023-02-13T02:32:09.549Z,21.30
2023-02-13T02:34:56.759Z,22.87
2023-02-13T02:37:37.050Z,23.33
2023-02-13T02:40:23.211Z,21.97
2023-02-13T02:43:04.584Z,22.23
2023-02-13T02:45:54.055Z,22.47
2023-02-13T02:48:39.620Z,23.07
2023-02-13T02:51:18.188Z,22.93
2023-02-13T02:53:58.286Z,22.90
2023-02-13T02:56:27.594Z,23.87
2023-02-13T02:59:21.986Z,23.40
2023-02-13T03:02:08.912Z,24.23
2023-02-13T03:05:08.258Z,23.57
2023-02-13T03:07:35.498Z,21.97
2023-02-13T03:10:28.988Z,24.00
2023-02-13T03:13:21.622Z,24.20
2023-02-13T03:16:13.320Z,24.10
2023-02-13T03:19:03.852Z,23.80
2023-02-13T03:22:15.404Z,29.13
2023-02-13T03:25:35.838Z,29.15
2023-02-13T03:28:39.383Z,25.23
2023-02-13T03:31:27.509Z,23.60
2023-02-13T03:34:09.970Z,23.07
2023-02-13T03:37:16.655Z,23.97
2023-02-13T03:39:48.009Z,24.07
2023-02-13T03:42:20.647Z,24.17
2023-02-13T03:45:18.228Z,23.40
2023-02-13T03:47:47.243Z,23.57
2023-02-13T03:50:21.049Z,22.80
2023-02-13T03:52:56.077Z,23.20
2023-02-13T03:55:50.575Z,23.07
2023-02-13T03:58:42.111Z,23.87
2023-02-13T04:01:12.631Z,23.47
2023-02-13T04:04:11.550Z,22.87
2023-02-13T04:06:56.757Z,23.90
2023-02-13T04:09:28.064Z,24.03
2023-02-13T04:11:54.912Z,23.87
2023-02-13T04:14:47.941Z,24.40
2023-02-13T04:17:25.241Z,23.10
2023-02-13T04:19:52.845Z,23.57
2023-02-13T04:22:20.129Z,23.23
2023-02-13T04:24:48.734Z,24.13
2023-02-13T04:27:19.815Z,24.40
2023-02-13T04:29:46.918Z,24.10
2023-02-13T04:32:15.187Z,24.37
2023-02-13T04:34:42.505Z,24.10
2023-02-13T04:37:10.848Z,23.43
2023-02-13T04:39:40.164Z,23.10
2023-02-13T04:42:07.414Z,24.87
2023-02-13T04:44:34.623Z,22.93
2023-02-13T04:47:04.166Z,23.77
2023-02-13T04:49:31.400Z,23.23
2023-02-13T04:51:58.361Z,24.07
2023-02-13T04:54:32.946Z,23.73
2023-02-13T04:57:02.263Z,23.57
2023-02-13T04:59:29.558Z,22.77
2023-02-13T05:01:56.530Z,23.23
2023-02-13T05:04:23.609Z,22.27
2023-02-13T05:06:50.616Z,23.23
2023-02-13T05:09:20.277Z,23.10
2023-02-13T05:11:47.607Z,23.03
2023-02-13T05:14:14.668Z,23.57
2023-02-13T05:16:41.907Z,21.70
2023-02-13T05:19:09.404Z,21.63
2023-02-13T05:21:56.094Z,22.77
2023-02-13T05:24:26.745Z,22.93
2023-02-13T05:26:54.222Z,22.40
2023-02-13T05:29:25.746Z,22.80
2023-02-13T05:31:59.346Z,24.27
2023-02-13T05:34:29.540Z,22.77
2023-02-13T05:36:59.217Z,24.33
2023-02-13T05:39:26.570Z,23.83
2023-02-13T05:41:53.457Z,23.23
2023-02-13T05:44:22.852Z,23.27
2023-02-13T05:46:53.608Z,24.17
2023-02-13T05:49:20.746Z,24.20
2023-02-13T05:51:52.391Z,24.50
2023-02-13T05:54:21.832Z,23.00
2023-02-13T05:56:51.217Z,22.93
2023-02-13T05:59:23.945Z,22.03
2023-02-13T06:02:07.361Z,22.97
2023-02-13T06:04:37.403Z,21.87
2023-02-13T06:07:05.136Z,22.77
2023-02-13T06:09:39.148Z,22.17
2023-02-13T06:14:48.352Z,23.33
2023-02-13T06:19:58.855Z,23.37
2023-02-13T06:22:29.326Z,22.23
2023-02-13T06:24:56.847Z,23.07
2023-02-13T06:33:00.977Z,22.33
2023-02-13T06:35:39.319Z,22.87
2023-02-13T06:38:08.976Z,23.87
2023-02-13T06:40:40.150Z,23.23
2023-02-13T06:43:08.847Z,24.47
2023-02-13T06:45:47.566Z,23.50
2023-02-13T06:50:56.775Z,24.27
2023-02-13T06:53:27.098Z,23.87
2023-02-13T06:55:58.176Z,22.10
2023-02-13T06:58:26.854Z,22.47
2023-02-13T07:01:00.480Z,23.00
2023-02-13T07:03:40.022Z,23.63
2023-02-13T07:06:12.949Z,23.40
2023-02-13T07:08:40.305Z,22.00
2023-02-13T07:11:16.804Z,23.33
2023-02-13T07:13:47.099Z,22.53
2023-02-13T07:16:17.758Z,20.70
2023-02-13T07:19:01.935Z,22.47
2023-02-13T07:21:31.465Z,22.93
2023-02-13T07:23:58.934Z,21.17
2023-02-13T07:26:33.877Z,21.33
2023-02-13T07:29:11.991Z,20.97
2023-02-13T07:31:42.592Z,21.80
2023-02-13T07:34:10.227Z,20.70
2023-02-13T07:39:19.459Z,22.33
2023-02-13T07:44:37.485Z,20.03
2023-02-13T07:47:19.033Z,21.23
2023-02-13T07:50:16.602Z,19.97
2023-02-13T07:53:03.245Z,20.87
2023-02-13T07:55:39.126Z,19.53
2023-02-13T08:00:59.052Z,19.37
2023-02-13T08:03:25.987Z,23.43
2023-02-13T08:05:52.963Z,23.27
2023-02-13T08:08:19.890Z,20.53
2023-02-13T08:11:05.400Z,18.23
2023-02-13T08:13:32.729Z,19.50
2023-02-13T08:15:59.790Z,18.30
2023-02-13T08:18:26.675Z,19.63
2023-02-13T08:20:53.443Z,19.17
2023-02-13T08:23:20.276Z,16.77
2023-02-13T08:25:49.508Z,17.50
2023-02-13T08:28:17.232Z,18.03
2023-02-13T08:30:44.348Z,17.80
2023-02-13T08:33:11.272Z,16.87
2023-02-13T08:35:38.080Z,16.53
2023-02-13T08:38:05.859Z,16.93
2023-02-13T08:40:33.515Z,16.13
2023-02-13T08:43:05.286Z,16.40
2023-02-13T08:45:33.619Z,16.40
2023-02-13T08:48:01.476Z,15.87
2023-02-13T08:50:28.815Z,17.40
2023-02-13T08:52:55.701Z,16.93
2023-02-13T08:55:22.596Z,15.43
2023-02-13T08:57:49.536Z,16.30
2023-02-13T09:00:16.713Z,14.40
2023-02-13T09:02:43.518Z,15.80
2023-02-13T09:05:10.604Z,14.30
2023-02-13T09:07:37.548Z,14.63
2023-02-13T09:10:04.908Z,15.37
2023-02-13T09:12:31.713Z,15.07
2023-02-13T09:14:58.542Z,14.27
2023-02-13T09:17:25.431Z,14.77
2023-02-13T09:19:52.347Z,15.93
2023-02-13T09:22:19.280Z,14.93
2023-02-13T09:24:46.169Z,14.47
2023-02-13T09:27:14.072Z,14.80
2023-02-13T09:29:40.998Z,14.13
2023-02-13T09:32:07.974Z,17.13
2023-02-13T09:34:34.963Z,16.83
2023-02-13T09:37:01.821Z,15.73
2023-02-13T09:39:29.144Z,16.30
2023-02-13T09:41:57.066Z,16.40
2023-02-13T09:44:43.789Z,16.10
2023-02-13T09:47:31.658Z,16.17
2023-02-13T09:50:22.386Z,14.85
2023-02-13T09:52:52.290Z,14.98
2023-02-13T09:55:29.669Z,15.90
2023-02-13T09:58:20.690Z,16.15
2023-02-13T10:00:54.089Z,15.77
2023-02-13T10:03:29.840Z,15.50
2023-02-13T10:06:11.548Z,15.63
2023-02-13T10:08:56.810Z,15.68
2023-02-13T10:11:35.484Z,16.42
2023-02-13T10:14:32.792Z,17.67
2023-02-13T10:17:15.968Z,16.70
2023-02-13T10:19:57.135Z,16.70
2023-02-13T10:22:33.366Z,16.73
2023-02-13T10:25:06.571Z,16.45
2023-02-13T10:27:40.312Z,16.70
2023-02-13T10:30:24.316Z,16.50
2023-02-13T10:33:36.553Z,16.75
2023-02-13T10:36:24.476Z,17.38
2023-02-13T10:39:31.873Z,17.30
2023-02-13T10:42:22.734Z,18.08
2023-02-13T10:44:58.426Z,17.23
2023-02-13T10:47:44.234Z,17.50
2023-02-13T10:50:10.997Z,17.25
2023-02-13T10:52:44.057Z,17.60
2023-02-13T10:55:41.946Z,17.13
2023-02-13T10:58:38.338Z,16.20
2023-02-13T11:01:32.022Z,16.38
2023-02-13T11:04:15.198Z,15.70
2023-02-13T11:06:46.548Z,16.38
2023-02-13T11:09:14.117Z,16.50
2023-02-13T11:11:43.523Z,17.90
2023-02-13T11:14:15.438Z,17.07
2023-02-13T11:17:17.917Z,16.45
2023-02-13T11:19:54.035Z,16.27
2023-02-13T11:22:42.566Z,15.90
2023-02-13T11:25:30.161Z,15.80
2023-02-13T11:28:21.042Z,15.77
2023-02-13T11:30:49.132Z,14.40
2023-02-13T11:33:26.978Z,14.30
2023-02-13T11:36:23.661Z,14.50
2023-02-13T11:38:59.712Z,13.98
2023-02-13T11:41:26.968Z,13.88
2023-02-13T11:44:01.253Z,14.30
2023-02-13T11:46:48.118Z,13.40
2023-02-13T11:49:24.783Z,13.60
2023-02-13T11:51:56.646Z,13.35
2023-02-13T11:54:36.593Z,12.95
2023-02-13T11:57:36.530Z,12.50
2023-02-13T12:00:29.179Z,13.23
2023-02-13T12:02:56.143Z,12.73
2023-02-13T12:05:25.803Z,12.45
2023-02-13T12:08:00.052Z,12.68
2023-02-13T12:10:37.121Z,12.98
2023-02-13T12:13:36.914Z,12.73
2023-02-13T12:16:26.269Z,12.10
2023-02-13T12:18:56.278Z,12.30
2023-02-13T12:21:43.055Z,12.35
2023-02-13T12:24:12.733Z,11.50
2023-02-13T12:26:48.760Z,11.80
2023-02-13T12:29:24.346Z,11.15
2023-02-13T12:32:09.957Z,10.33
2023-02-13T12:34:55.248Z,11.18
2023-02-13T12:37:43.815Z,10.82
2023-02-13T12:40:44.224Z,10.37
2023-02-13T12:43:48.126Z,10.20
2023-02-13T12:46:20.863Z,10.30
2023-02-13T12:49:26.008Z,10.88
2023-02-13T12:52:40.613Z,10.50
2023-02-13T12:55:37.786Z,10.75
2023-02-13T12:58:23.207Z,10.40
2023-02-13T13:01:04.384Z,10.23
2023-02-13T13:03:56.236Z,9.55
2023-02-13T13:06:38.173Z,9.73
2023-02-13T13:09:44.136Z,10.10
2023-02-13T13:12:10.990Z,10.48
2023-02-13T13:14:54.585Z,10.15
2023-02-13T13:17:36.187Z,10.18
2023-02-13T13:20:06.532Z,10.45
2023-02-13T13:22:35.713Z,11.20
2023-02-13T13:25:36.186Z,10.40
2023-02-13T13:28:11.311Z,10.43
2023-02-13T13:30:39.778Z,10.60
2023-02-13T13:33:28.208Z,10.50
2023-02-13T13:36:15.310Z,10.80
2023-02-13T13:38:57.027Z,10.57
2023-02-13T13:41:40.993Z,11.68
2023-02-13T13:44:48.834Z,11.82
2023-02-13T13:47:44.762Z,12.43
2023-02-13T13:50:24.246Z,12.60
2023-02-13T13:53:06.254Z,13.00
2023-02-13T13:55:51.632Z,12.90
2023-02-13T13:58:38.469Z,13.07
2023-02-13T14:01:23.994Z,13.07
2023-02-13T14:03:59.829Z,12.77
2023-02-13T14:06:28.354Z,13.23
2023-02-13T14:08:58.690Z,13.77
2023-02-13T14:11:34.621Z,13.77
2023-02-13T14:14:22.217Z,13.13
2023-02-13T14:16:49.156Z,13.25
2023-02-13T14:19:33.051Z,12.75
2023-02-13T14:24:36.095Z,13.20
2023-02-13T14:27:06.183Z,13.93
2023-02-13T14:29:34.629Z,13.18
2023-02-13T14:32:29.243Z,13.67
2023-02-13T14:35:17.111Z,14.43
2023-02-13T14:38:02.089Z,13.70
2023-02-13T14:40:41.248Z,13.70
2023-02-13T14:43:14.183Z,14.10
2023-02-13T14:45:53.270Z,13.30
2023-02-13T14:48:22.665Z,13.30
2023-02-13T14:50:53.546Z,13.60
2023-02-13T14:53:52.457Z,13.33
2023-02-13T14:56:23.022Z,13.40
2023-02-13T14:59:10.046Z,13.13
2023-02-13T15:01:48.377Z,13.95
2023-02-13T15:04:38.907Z,13.50
2023-02-13T15:07:13.419Z,13.88
2023-02-13T15:09:41.543Z,14.20
2023-02-13T15:12:44.206Z,13.77
2023-02-13T15:15:26.275Z,14.02
2023-02-13T15:18:04.733Z,13.65
2023-02-13T15:20:34.873Z,13.88
2023-02-13T15:23:02.311Z,13.23
2023-02-13T15:25:40.334Z,13.48
2023-02-13T15:28:17.192Z,13.75
2023-02-13T15:30:56.522Z,14.05
2023-02-13T15:33:26.802Z,14.40
2023-02-13T15:36:27.932Z,13.63
2023-02-13T15:39:09.664Z,13.73
2023-02-13T16:00:49.840Z,13.77
2023-02-13T16:03:18.671Z,14.25
2023-02-13T16:24:39.915Z,14.60
2023-02-13T17:05:38.871Z,17.40
2023-02-13T17:11:54.840Z,20.57
2023-02-13T17:14:22.004Z,18.63
2023-02-13T17:20:44.460Z,21.10
2023-02-13T17:23:23.867Z,18.33
2023-02-13T17:30:54.205Z,17.63
2023-02-13T17:33:22.927Z,19.10
2023-02-13T17:35:50.383Z,19.07
2023-02-13T17:38:17.897Z,15.83
2023-02-13T17:40:45.762Z,18.03
2023-02-13T17:43:18.125Z,19.30
2023-02-13T17:45:47.052Z,18.20
2023-02-13T17:48:14.498Z,18.83
2023-02-13T17:50:41.916Z,20.77
2023-02-13T17:53:32.761Z,22.38
2023-02-13T17:55:59.887Z,24.48
2023-02-13T17:58:27.259Z,25.13
2023-02-13T18:00:54.600Z,23.73
2023-02-13T18:03:22.730Z,22.67
2023-02-13T18:05:50.904Z,20.57
2023-02-13T18:08:18.255Z,18.57
2023-02-13T18:10:45.634Z,17.07
2023-02-13T18:13:15.037Z,15.97
2023-02-13T18:18:30.497Z,16.77
2023-02-13T18:21:02.546Z,16.50
2023-02-13T18:26:56.214Z,16.93
2023-02-13T18:29:23.499Z,16.77
2023-02-13T18:40:43.172Z,17.00
2023-02-13T18:58:11.235Z,44.03
2023-02-13T19:13:00.276Z,25.15
2023-02-13T19:15:27.514Z,21.57
2023-02-13T19:20:50.918Z,25.13
2023-02-13T19:23:18.260Z,23.10
2023-02-13T19:25:46.676Z,23.67
2023-02-13T19:28:36.920Z,22.10
2023-02-13T19:39:48.874Z,25.30
2023-02-13T19:59:03.025Z,26.17
2023-02-13T20:04:14.035Z,27.90
2023-02-13T20:47:16.147Z,22.33
2023-02-13T20:49:43.207Z,25.02
2023-02-13T20:52:10.349Z,22.88
2023-02-13T20:54:37.499Z,26.90
2023-02-13T20:57:04.553Z,25.13
2023-02-13T20:59:34.687Z,25.17
2023-02-13T21:02:01.799Z,24.42
2023-02-13T21:07:09.146Z,24.38
2023-02-13T21:09:37.609Z,24.70
2023-02-13T21:12:06.953Z,24.80
2023-02-13T21:14:34.129Z,27.38
2023-02-13T21:17:01.146Z,26.90
2023-02-13T21:19:28.032Z,24.73
2023-02-13T21:21:54.964Z,26.70
2023-02-13T21:24:23.019Z,27.85
2023-02-13T21:26:52.492Z,26.83
2023-02-13T21:29:20.058Z,28.10
2023-02-13T21:34:31.444Z,28.15
2023-02-13T21:36:58.620Z,28.90
2023-02-13T21:39:26.253Z,31.40
2023-02-13T21:42:05.374Z,29.27
2023-02-13T21:44:32.556Z,26.48
2023-02-13T21:47:02.032Z,31.27
2023-02-13T21:49:29.137Z,31.58
2023-02-13T21:51:59.415Z,29.50
2023-02-13T21:54:29.022Z,28.25
